V.b Algeciras — ECCR — position and weather

sailwx.info

Track history (hours):
 
Tides and Currents Weather Stations Pressure Air Temp Water Temp Dewpoint Dewpoint Depression Visibility Wind Speed Wind Dir Waves Ship Positions

V.b Algeciras

Last reported at 2015-Mar-03 08:30 UTC. Time now 2015-Mar-03 16:33 UTC.
Position N 36°09' W 005°26'.

Length 30 m; draft 5.1 m.

Type: Tug. MMSI: 224121250.

Date/timePositionNaut miles runAvg speedWind from/ knotsBaromVisibWave heightAir tempDewpointWater temp
2015-Mar-03 08:30N 36°09' W 005°26'1 1.0
2015-Mar-03 07:33N 36°08' W 005°26'0 0.5
2015-Mar-03 06:33N 36°09' W 005°26'1 0.5
2015-Mar-03 05:33N 36°09' W 005°26'0 0.3
2015-Mar-03 04:33N 36°09' W 005°26'1 0.7
2015-Mar-03 03:33N 36°08' W 005°26'0 0.0
2015-Mar-03 02:33N 36°08' W 005°26'0 0.0
2015-Mar-03 01:34N 36°08' W 005°26'0 0.0
2015-Mar-03 00:24N 36°08' W 005°26'0 0.3
2015-Mar-02 23:33N 36°08' W 005°26'0 0.0
2015-Mar-02 22:33N 36°08' W 005°26'0 0.0
2015-Mar-02 21:33N 36°08' W 005°26'0 0.0
2015-Mar-02 20:34N 36°08' W 005°26'0 0.0
2015-Mar-02 19:33N 36°08' W 005°26'0 0.0
2015-Mar-02 18:34N 36°08' W 005°26'0 0.0
2015-Mar-02 17:24N 36°08' W 005°26'0 0.0
2015-Mar-02 16:32N 36°08' W 005°26'0 0.0
2015-Mar-02 15:32N 36°08' W 005°26'0 0.0
2015-Mar-02 14:30N 36°08' W 005°26'0 0.0
2015-Mar-02 13:33N 36°08' W 005°26'0 0.0
2015-Mar-02 12:33N 36°08' W 005°26'0 0.4
2015-Mar-02 11:30N 36°08' W 005°25'0 0.4
2015-Mar-02 10:20N 36°08' W 005°26'0 0.0
2015-Mar-02 09:23N 36°08' W 005°26'1 0.8
2015-Mar-02 08:14N 36°09' W 005°25'1 1.1
2015-Mar-02 07:25N 36°08' W 005°26'0 0.0
2015-Mar-02 05:32N 36°08' W 005°26'0 0.0
2015-Mar-02 04:27N 36°08' W 005°26'0 0.3
2015-Mar-02 03:22N 36°08' W 005°26'0 0.3
2015-Mar-02 02:06N 36°08' W 005°26'1 1.1
2015-Mar-02 01:32N 36°08' W 005°26'0 0.0
2015-Mar-02 00:33N 36°08' W 005°26'0 0.0
2015-Mar-01 23:33N 36°08' W 005°26'0 0.0
2015-Mar-01 22:32N 36°08' W 005°26'0 0.0
2015-Mar-01 20:19N 36°08' W 005°26'1 1.1
2015-Mar-01 19:29N 36°09' W 005°26'1 0.5
2015-Mar-01 17:28N 36°08' W 005°26'0 0.0
2015-Mar-01 16:29N 36°08' W 005°26'0 0.0
2015-Mar-01 15:32N 36°08' W 005°26'0 0.0
2015-Mar-01 14:32N 36°08' W 005°26'0 0.0
2015-Mar-01 13:33N 36°08' W 005°26'0 0.0
2015-Mar-01 12:32N 36°08' W 005°26'0 0.0
2015-Mar-01 11:18N 36°08' W 005°26'0 0.0
2015-Mar-01 09:32N 36°08' W 005°26'0 0.0
2015-Mar-01 08:33N 36°08' W 005°26'0 0.0
2015-Mar-01 07:30N 36°08' W 005°26'0 0.0
2015-Mar-01 06:29N 36°08' W 005°26'0 0.0
2015-Mar-01 05:33N 36°08' W 005°26'0 0.0
2015-Mar-01 04:31N 36°08' W 005°26'0 0.0
2015-Mar-01 03:30N 36°08' W 005°26'0 0.0
2015-Mar-01 02:33N 36°08' W 005°26'0 0.0
2015-Mar-01 01:25N 36°08' W 005°26'2 2.1
2015-Mar-01 00:30N 36°09' W 005°24'2 1.6
2015-Feb-28 23:18N 36°08' W 005°26'0 0.0
2015-Feb-28 22:31N 36°08' W 005°26'0 0.0
2015-Feb-28 21:19N 36°08' W 005°26'0 0.0
2015-Feb-28 20:26N 36°08' W 005°26'0 0.0
2015-Feb-28 19:30N 36°08' W 005°26'1 0.9
2015-Feb-28 18:33N 36°09' W 005°26'1 0.8
2015-Feb-28 17:28N 36°08' W 005°26'0 0.0
2015-Feb-28 16:24N 36°08' W 005°26'0 0.0
2015-Feb-28 15:16N 36°08' W 005°26'0 0.0
2015-Feb-28 14:17N 36°08' W 005°26'0 0.0
2015-Feb-28 12:30N 36°08' W 005°26'0 0.0
2015-Feb-28 07:03N 36°08' W 005°26'0 0.0
2015-Feb-28 05:04N 36°08' W 005°26'0 0.0
2015-Feb-27 23:25N 36°08' W 005°26'0 0.0
2015-Feb-27 22:33N 36°08' W 005°26'0 0.1
2015-Feb-27 17:17N 36°08' W 005°25'0 0.1
2015-Feb-27 16:32N 36°08' W 005°25'0 0.4
2015-Feb-27 15:26N 36°08' W 005°26'1 0.5
2015-Feb-27 13:32N 36°09' W 005°26'2 1.9
2015-Feb-27 12:29N 36°08' W 005°23'2 0.9
2015-Feb-27 10:25N 36°08' W 005°26'0 0.3
2015-Feb-27 09:30N 36°08' W 005°26'0 0.0
2015-Feb-27 08:33N 36°08' W 005°26'0 0.0
2015-Feb-27 07:30N 36°08' W 005°26'0 0.0
2015-Feb-27 06:14N 36°08' W 005°26'0 0.0
2015-Feb-27 05:14N 36°08' W 005°26'0 0.0
2015-Feb-27 04:32N 36°08' W 005°26'0 0.4
2015-Feb-27 03:33N 36°08' W 005°26'0 0.4
2015-Feb-27 02:32N 36°08' W 005°26'0 0.0
2015-Feb-27 01:30N 36°08' W 005°26'0 0.0
2015-Feb-27 00:26N 36°08' W 005°26'0 0.2
2015-Feb-26 23:16N 36°08' W 005°26'0 0.3
2015-Feb-26 22:33N 36°08' W 005°26'0 0.0
2015-Feb-26 21:30N 36°08' W 005°26'0 0.0
2015-Feb-26 20:20N 36°08' W 005°26'0 0.0
2015-Feb-26 18:18N 36°08' W 005°26'0 0.0
2015-Feb-26 17:33N 36°08' W 005°26'0 0.0
2015-Feb-26 16:24N 36°08' W 005°26'0 0.2
2015-Feb-26 15:22N 36°08' W 005°26'0 0.3
2015-Feb-26 14:33N 36°08' W 005°26'0 0.0
2015-Feb-26 12:28N 36°08' W 005°26'0 0.0
2015-Feb-26 11:09N 36°08' W 005°26'0 0.0
2015-Feb-26 08:32N 36°08' W 005°26'0 0.0
2015-Feb-26 05:18N 36°08' W 005°26'0 0.0
2015-Feb-26 04:23N 36°08' W 005°26'2 1.9
2015-Feb-26 03:30N 36°09' W 005°24'1 1.4
2015-Feb-26 02:31N 36°11' W 005°24'1 0.6
2015-Feb-26 01:29N 36°10' W 005°24'2 0.8
2015-Feb-25 22:33N 36°08' W 005°26'0 0.0
2015-Feb-25 21:33N 36°08' W 005°26'0 0.0
2015-Feb-25 20:24N 36°08' W 005°26'0 0.2
2015-Feb-25 17:30N 36°08' W 005°25'0 0.2
2015-Feb-25 15:06N 36°08' W 005°26'0 0.0
2015-Feb-25 14:32N 36°08' W 005°26'1 1.1
2015-Feb-25 13:24N 36°08' W 005°24'1 1.1
2015-Feb-25 12:22N 36°08' W 005°26'1 1.1
2015-Feb-25 11:32N 36°07' W 005°25'0 0.2
2015-Feb-25 10:30N 36°07' W 005°25'1 0.4
2015-Feb-25 08:33N 36°08' W 005°26'0 0.0
2015-Feb-25 07:15N 36°08' W 005°26'1 1.0
2015-Feb-25 06:33N 36°09' W 005°26'1 0.3
2015-Feb-25 04:21N 36°08' W 005°26'0 0.3
2015-Feb-25 03:34N 36°08' W 005°26'0 0.1
2015-Feb-24 23:09N 36°08' W 005°26'0 0.0
2015-Feb-24 16:20N 36°08' W 005°26'0 0.3
2015-Feb-24 14:32N 36°08' W 005°25'1 1.1
2015-Feb-24 13:26N 36°08' W 005°24'0 0.2
2015-Feb-24 12:28N 36°08' W 005°24'1 0.4
2015-Feb-24 10:07N 36°08' W 005°25'0 0.0
2015-Feb-24 00:32N 36°08' W 005°25'0 0.1
2015-Feb-23 20:05N 36°08' W 005°25'0 0.4
2015-Feb-23 19:31N 36°08' W 005°25'0 0.3
2015-Feb-23 18:33N 36°08' W 005°26'1 0.3
2015-Feb-23 15:32N 36°08' W 005°25'1 0.2
2015-Feb-23 12:33N 36°08' W 005°25'0 0.3
2015-Feb-23 11:28N 36°08' W 005°26'0 0.0
2015-Feb-23 10:04N 36°08' W 005°26'0 0.0
2015-Feb-23 09:21N 36°08' W 005°26'0 0.0
2015-Feb-23 08:05N 36°08' W 005°26'2 2.6
2015-Feb-23 07:16N 36°10' W 005°25'2 1.0
2015-Feb-23 05:23N 36°08' W 005°26'0 0.1
2015-Feb-23 02:32N 36°08' W 005°26'1 0.7
2015-Feb-23 01:33N 36°08' W 005°25'0 0.2
2015-Feb-22 23:33N 36°08' W 005°26'0 0.0
2015-Feb-22 22:33N 36°08' W 005°26'0 0.3
2015-Feb-22 21:27N 36°08' W 005°25'0 0.1
2015-Feb-22 16:22N 36°08' W 005°26'0 0.0
2015-Feb-21 22:32N 36°08' W 005°26'0 0.0
2015-Feb-21 16:10N 36°08' W 005°26'0 0.0
2015-Feb-21 12:04N 36°08' W 005°26'0 0.7
2015-Feb-21 11:33N 36°08' W 005°26'1 0.3
2015-Feb-21 09:04N 36°09' W 005°26'  
Track history (hours):
 
Tides and Currents Weather Stations Pressure Air Temp Water Temp Dewpoint Dewpoint Depression Visibility Wind Speed Wind Dir Waves Ship Positions

V.b Algeciras

Last reported at 2015-Mar-03 08:30 UTC. Time now 2015-Mar-03 16:33 UTC.
Position N 36°09' W 005°26'.

Length 30 m; draft 5.1 m.

Type: Tug. MMSI: 224121250.

Date/timePositionNaut miles runAvg speedWind from/ knotsBaromVisibWave heightAir tempDewpointWater temp
2015-Mar-03 08:30N 36°09' W 005°26'1 1.0
2015-Mar-03 07:33N 36°08' W 005°26'0 0.5
2015-Mar-03 06:33N 36°09' W 005°26'1 0.5
2015-Mar-03 05:33N 36°09' W 005°26'0 0.3
2015-Mar-03 04:33N 36°09' W 005°26'1 0.7
2015-Mar-03 03:33N 36°08' W 005°26'0 0.0
2015-Mar-03 02:33N 36°08' W 005°26'0 0.0
2015-Mar-03 01:34N 36°08' W 005°26'0 0.0
2015-Mar-03 00:24N 36°08' W 005°26'0 0.3
2015-Mar-02 23:33N 36°08' W 005°26'0 0.0
2015-Mar-02 22:33N 36°08' W 005°26'0 0.0
2015-Mar-02 21:33N 36°08' W 005°26'0 0.0
2015-Mar-02 20:34N 36°08' W 005°26'0 0.0
2015-Mar-02 19:33N 36°08' W 005°26'0 0.0
2015-Mar-02 18:34N 36°08' W 005°26'0 0.0
2015-Mar-02 17:24N 36°08' W 005°26'0 0.0
2015-Mar-02 16:32N 36°08' W 005°26'0 0.0
2015-Mar-02 15:32N 36°08' W 005°26'0 0.0
2015-Mar-02 14:30N 36°08' W 005°26'0 0.0
2015-Mar-02 13:33N 36°08' W 005°26'0 0.0
2015-Mar-02 12:33N 36°08' W 005°26'0 0.4
2015-Mar-02 11:30N 36°08' W 005°25'0 0.4
2015-Mar-02 10:20N 36°08' W 005°26'0 0.0
2015-Mar-02 09:23N 36°08' W 005°26'1 0.8
2015-Mar-02 08:14N 36°09' W 005°25'1 1.1
2015-Mar-02 07:25N 36°08' W 005°26'0 0.0
2015-Mar-02 05:32N 36°08' W 005°26'0 0.0
2015-Mar-02 04:27N 36°08' W 005°26'0 0.3
2015-Mar-02 03:22N 36°08' W 005°26'0 0.3
2015-Mar-02 02:06N 36°08' W 005°26'1 1.1
2015-Mar-02 01:32N 36°08' W 005°26'0 0.0
2015-Mar-02 00:33N 36°08' W 005°26'0 0.0
2015-Mar-01 23:33N 36°08' W 005°26'0 0.0
2015-Mar-01 22:32N 36°08' W 005°26'0 0.0
2015-Mar-01 20:19N 36°08' W 005°26'1 1.1
2015-Mar-01 19:29N 36°09' W 005°26'1 0.5
2015-Mar-01 17:28N 36°08' W 005°26'0 0.0
2015-Mar-01 16:29N 36°08' W 005°26'0 0.0
2015-Mar-01 15:32N 36°08' W 005°26'0 0.0
2015-Mar-01 14:32N 36°08' W 005°26'0 0.0
2015-Mar-01 13:33N 36°08' W 005°26'0 0.0
2015-Mar-01 12:32N 36°08' W 005°26'0 0.0
2015-Mar-01 11:18N 36°08' W 005°26'0 0.0
2015-Mar-01 09:32N 36°08' W 005°26'0 0.0
2015-Mar-01 08:33N 36°08' W 005°26'0 0.0
2015-Mar-01 07:30N 36°08' W 005°26'0 0.0
2015-Mar-01 06:29N 36°08' W 005°26'0 0.0
2015-Mar-01 05:33N 36°08' W 005°26'0 0.0
2015-Mar-01 04:31N 36°08' W 005°26'0 0.0
2015-Mar-01 03:30N 36°08' W 005°26'0 0.0
2015-Mar-01 02:33N 36°08' W 005°26'0 0.0
2015-Mar-01 01:25N 36°08' W 005°26'2 2.1
2015-Mar-01 00:30N 36°09' W 005°24'2 1.6
2015-Feb-28 23:18N 36°08' W 005°26'0 0.0
2015-Feb-28 22:31N 36°08' W 005°26'0 0.0
2015-Feb-28 21:19N 36°08' W 005°26'0 0.0
2015-Feb-28 20:26N 36°08' W 005°26'0 0.0
2015-Feb-28 19:30N 36°08' W 005°26'1 0.9
2015-Feb-28 18:33N 36°09' W 005°26'1 0.8
2015-Feb-28 17:28N 36°08' W 005°26'0 0.0
2015-Feb-28 16:24N 36°08' W 005°26'0 0.0
2015-Feb-28 15:16N 36°08' W 005°26'0 0.0
2015-Feb-28 14:17N 36°08' W 005°26'0 0.0
2015-Feb-28 12:30N 36°08' W 005°26'0 0.0
2015-Feb-28 07:03N 36°08' W 005°26'0 0.0
2015-Feb-28 05:04N 36°08' W 005°26'0 0.0
2015-Feb-27 23:25N 36°08' W 005°26'0 0.0
2015-Feb-27 22:33N 36°08' W 005°26'0 0.1
2015-Feb-27 17:17N 36°08' W 005°25'0 0.1
2015-Feb-27 16:32N 36°08' W 005°25'0 0.4
2015-Feb-27 15:26N 36°08' W 005°26'1 0.5
2015-Feb-27 13:32N 36°09' W 005°26'2 1.9
2015-Feb-27 12:29N 36°08' W 005°23'2 0.9
2015-Feb-27 10:25N 36°08' W 005°26'0 0.3
2015-Feb-27 09:30N 36°08' W 005°26'0 0.0
2015-Feb-27 08:33N 36°08' W 005°26'0 0.0
2015-Feb-27 07:30N 36°08' W 005°26'0 0.0
2015-Feb-27 06:14N 36°08' W 005°26'0 0.0
2015-Feb-27 05:14N 36°08' W 005°26'0 0.0
2015-Feb-27 04:32N 36°08' W 005°26'0 0.4
2015-Feb-27 03:33N 36°08' W 005°26'0 0.4
2015-Feb-27 02:32N 36°08' W 005°26'0 0.0
2015-Feb-27 01:30N 36°08' W 005°26'0 0.0
2015-Feb-27 00:26N 36°08' W 005°26'0 0.2
2015-Feb-26 23:16N 36°08' W 005°26'0 0.3
2015-Feb-26 22:33N 36°08' W 005°26'0 0.0
2015-Feb-26 21:30N 36°08' W 005°26'0 0.0
2015-Feb-26 20:20N 36°08' W 005°26'0 0.0
2015-Feb-26 18:18N 36°08' W 005°26'0 0.0
2015-Feb-26 17:33N 36°08' W 005°26'0 0.0
2015-Feb-26 16:24N 36°08' W 005°26'0 0.2
2015-Feb-26 15:22N 36°08' W 005°26'0 0.3
2015-Feb-26 14:33N 36°08' W 005°26'0 0.0
2015-Feb-26 12:28N 36°08' W 005°26'0 0.0
2015-Feb-26 11:09N 36°08' W 005°26'0 0.0
2015-Feb-26 08:32N 36°08' W 005°26'0 0.0
2015-Feb-26 05:18N 36°08' W 005°26'0 0.0
2015-Feb-26 04:23N 36°08' W 005°26'2 1.9
2015-Feb-26 03:30N 36°09' W 005°24'1 1.4
2015-Feb-26 02:31N 36°11' W 005°24'1 0.6
2015-Feb-26 01:29N 36°10' W 005°24'2 0.8
2015-Feb-25 22:33N 36°08' W 005°26'0 0.0
2015-Feb-25 21:33N 36°08' W 005°26'0 0.0
2015-Feb-25 20:24N 36°08' W 005°26'0 0.2
2015-Feb-25 17:30N 36°08' W 005°25'0 0.2
2015-Feb-25 15:06N 36°08' W 005°26'0 0.0
2015-Feb-25 14:32N 36°08' W 005°26'1 1.1
2015-Feb-25 13:24N 36°08' W 005°24'1 1.1
2015-Feb-25 12:22N 36°08' W 005°26'1 1.1
2015-Feb-25 11:32N 36°07' W 005°25'0 0.2
2015-Feb-25 10:30N 36°07' W 005°25'1 0.4
2015-Feb-25 08:33N 36°08' W 005°26'0 0.0
2015-Feb-25 07:15N 36°08' W 005°26'1 1.0
2015-Feb-25 06:33N 36°09' W 005°26'1 0.3
2015-Feb-25 04:21N 36°08' W 005°26'0 0.3
2015-Feb-25 03:34N 36°08' W 005°26'0 0.1
2015-Feb-24 23:09N 36°08' W 005°26'0 0.0
2015-Feb-24 16:20N 36°08' W 005°26'0 0.3
2015-Feb-24 14:32N 36°08' W 005°25'1 1.1
2015-Feb-24 13:26N 36°08' W 005°24'0 0.2
2015-Feb-24 12:28N 36°08' W 005°24'1 0.4
2015-Feb-24 10:07N 36°08' W 005°25'0 0.0
2015-Feb-24 00:32N 36°08' W 005°25'0 0.1
2015-Feb-23 20:05N 36°08' W 005°25'0 0.4
2015-Feb-23 19:31N 36°08' W 005°25'0 0.3
2015-Feb-23 18:33N 36°08' W 005°26'1 0.3
2015-Feb-23 15:32N 36°08' W 005°25'1 0.2
2015-Feb-23 12:33N 36°08' W 005°25'0 0.3
2015-Feb-23 11:28N 36°08' W 005°26'0 0.0
2015-Feb-23 10:04N 36°08' W 005°26'0 0.0
2015-Feb-23 09:21N 36°08' W 005°26'0 0.0
2015-Feb-23 08:05N 36°08' W 005°26'2 2.6
2015-Feb-23 07:16N 36°10' W 005°25'2 1.0
2015-Feb-23 05:23N 36°08' W 005°26'0 0.1
2015-Feb-23 02:32N 36°08' W 005°26'1 0.7
2015-Feb-23 01:33N 36°08' W 005°25'0 0.2
2015-Feb-22 23:33N 36°08' W 005°26'0 0.0
2015-Feb-22 22:33N 36°08' W 005°26'0 0.3
2015-Feb-22 21:27N 36°08' W 005°25'0 0.1
2015-Feb-22 16:22N 36°08' W 005°26'0 0.0
2015-Feb-21 22:32N 36°08' W 005°26'0 0.0
2015-Feb-21 16:10N 36°08' W 005°26'0 0.0
2015-Feb-21 12:04N 36°08' W 005°26'0 0.7
2015-Feb-21 11:33N 36°08' W 005°26'1 0.3
2015-Feb-21 09:04N 36°09' W 005°26'  

Dump ship's entire track history